Time;durP1;ratioP1;P1;durP2;ratioP2;P2;SDS_P1;SDS_P2;PMS_P1;PMS_P2;Temp;Humidity;BMP_temperature;BMP_pressure;BME280_temperature;BME280_humidity;BME280_pressure;Samples;Min_cycle;Max_cycle;Signal;HPM_P1;HPM_P2
2022/01/23 00:02:05;;;;;;;;;;;1.30;99.90;;;;;;4981856;28;19960;-84
2022/01/23 00:04:31;;;;;;;;;;;1.20;99.90;;;;;;4999475;28;19940;-86
2022/01/23 00:06:56;;;;;;;;;;;1.20;99.90;;;;;;5001875;28;20016;-88
2022/01/23 00:09:22;;;;;;;;;;;1.20;99.90;;;;;;4984099;28;19917;-82
2022/01/23 00:11:53;;;;;;;;;;;1.20;99.90;;;;;;4982773;28;20009;-84
2022/01/23 00:17:20;;;;;;;;;;;1.30;99.90;;;;;;5002071;28;19932;-85
2022/01/23 00:19:50;;;;;;;;;;;1.40;99.90;;;;;;5000393;28;19983;-87
2022/01/23 00:22:17;;;;;;;;;;;1.40;99.90;;;;;;5002185;28;19960;-83
2022/01/23 00:30:28;;;;;;;;;;;1.60;99.90;;;;;;4990933;28;20308;-85
2022/01/23 00:32:57;;;;;;;;;;;1.60;99.90;;;;;;5000500;28;20020;-83
2022/01/23 00:35:24;;;;;;;;;;;1.60;99.90;;;;;;4999464;28;19921;-85
2022/01/23 00:37:49;;;;;;;;;;;1.60;99.90;;;;;;5000017;28;19924;-86
2022/01/23 00:40:16;;;;;;;;;;;1.60;99.90;;;;;;4998844;28;19922;-87
2022/01/23 00:42:41;;;;;;;;;;;1.40;99.90;;;;;;4982877;28;19910;-85
2022/01/23 00:47:37;;;;;;;;;;;1.20;99.90;;;;;;4999072;28;19927;-84
2022/01/23 00:50:03;;;;;;;;;;;1.30;99.90;;;;;;4978917;28;19926;-85
2022/01/23 00:52:28;;;;;;;;;;;1.30;99.90;;;;;;4997374;28;20394;-85
2022/01/23 00:54:55;;;;;;;;;;;1.40;99.90;;;;;;4983014;28;19918;-85
2022/01/23 00:57:21;;;;;;;;;;;1.40;99.90;;;;;;4996768;28;19979;-84
2022/01/23 00:59:46;;;;;;;;;;;1.50;99.90;;;;;;5000033;28;20361;-86
2022/01/23 01:02:12;;;;;;;;;;;1.50;99.90;;;;;;4976693;28;19922;-86
2022/01/23 01:04:37;;;;;;;;;;;1.40;99.90;;;;;;4979413;28;20020;-85
2022/01/23 01:07:03;;;;;;;;;;;1.40;99.90;;;;;;5001274;28;19944;-86
2022/01/23 01:09:30;;;;;;;;;;;1.40;99.90;;;;;;4983993;28;19917;-86
2022/01/23 01:12:03;;;;;;;;;;;1.30;99.90;;;;;;4982602;28;19959;-85
2022/01/23 01:17:03;;;;;;;;;;;1.30;99.90;;;;;;4999876;28;19918;-87
2022/01/23 01:30:35;;;;;;;;;;;1.30;99.90;;;;;;4998763;28;20435;-82
2022/01/23 01:35:36;;;;;;;;;;;1.30;99.90;;;;;;4997935;28;19928;-86
2022/01/23 01:38:02;;;;;;;;;;;1.20;99.90;;;;;;5001089;28;19910;-83
2022/01/23 01:40:28;;;;;;;;;;;1.30;99.90;;;;;;4997226;28;19969;-83
2022/01/23 01:42:53;;;;;;;;;;;1.30;99.90;;;;;;4999217;28;19917;-84
2022/01/23 01:45:20;;;;;;;;;;;1.20;99.90;;;;;;4981137;28;19922;-87
2022/01/23 01:47:47;;;;;;;;;;;1.20;99.90;;;;;;4983339;28;19973;-86
2022/01/23 01:50:12;;;;;;;;;;;1.10;99.90;;;;;;4980782;28;19914;-87
2022/01/23 01:52:40;;;;;;;;;;;1.10;99.90;;;;;;4983388;28;20395;-85
2022/01/23 01:55:08;;;;;;;;;;;1.10;99.90;;;;;;4994293;28;20012;-85
2022/01/23 01:57:39;;;;;;;;;;;1.10;99.90;;;;;;4982774;28;19923;-84
2022/01/23 02:00:24;;;;;;;;;;;1.00;99.90;;;;;;4979850;28;20355;-84
2022/01/23 02:10:55;;;;;;;;;;;1.00;99.90;;;;;;4995776;28;20020;-82
2022/01/23 02:13:27;;;;;;;;;;;1.10;99.90;;;;;;4981571;28;19933;-85
2022/01/23 02:51:06;;;;;;;;;;;1.40;99.90;;;;;;4998392;28;19932;-85
2022/01/23 02:56:23;;;;;;;;;;;1.30;99.90;;;;;;5000614;28;19964;-84
2022/01/23 02:58:59;;;;;;;;;;;1.20;99.90;;;;;;4984478;28;20452;-82
2022/01/23 03:01:28;;;;;;;;;;;1.10;99.90;;;;;;5006687;28;19933;-85
2022/01/23 03:04:00;;;;;;;;;;;1.10;99.90;;;;;;5009306;28;19921;-85
2022/01/23 03:30:55;;;;;;;;;;;1.20;99.90;;;;;;4997903;28;19928;-84
2022/01/23 03:33:20;;;;;;;;;;;1.20;99.90;;;;;;5000539;28;19976;-84
2022/01/23 03:35:46;;;;;;;;;;;1.20;99.90;;;;;;4996472;28;20658;-85
2022/01/23 03:38:12;;;;;;;;;;;1.20;99.90;;;;;;4985758;28;20012;-85
2022/01/23 03:40:37;;;;;;;;;;;1.20;99.90;;;;;;4983111;28;19925;-84
2022/01/23 03:43:11;;;;;;;;;;;1.30;99.90;;;;;;4977347;28;19925;-84
2022/01/23 03:50:38;;;;;;;;;;;1.10;99.90;;;;;;4998740;28;19918;-84
2022/01/23 03:53:04;;;;;;;;;;;1.10;99.90;;;;;;5001779;28;19921;-85
2022/01/23 03:55:30;;;;;;;;;;;1.10;99.90;;;;;;5002151;28;19924;-85
2022/01/23 03:57:56;;;;;;;;;;;1.20;99.90;;;;;;4982717;28;20616;-84
2022/01/23 04:00:23;;;;;;;;;;;1.30;99.90;;;;;;4982542;28;20401;-87
2022/01/23 04:02:48;;;;;;;;;;;1.40;99.90;;;;;;4983317;28;19918;-83
2022/01/23 04:05:14;;;;;;;;;;;1.30;99.90;;;;;;4960184;28;20416;-85
2022/01/23 04:07:40;;;;;;;;;;;1.20;99.90;;;;;;4959356;28;19922;-85
2022/01/23 04:10:05;;;;;;;;;;;1.10;99.90;;;;;;4960649;28;20692;-84
2022/01/23 04:15:29;;;;;;;;;;;1.10;99.90;;;;;;4959206;28;19922;-87
2022/01/23 04:20:51;;;;;;;;;;;1.40;99.90;;;;;;4959319;28;19970;-86
2022/01/23 04:34:30;;;;;;;;;;;0.90;99.90;;;;;;4956104;28;20294;-83
2022/01/23 05:04:22;;;;;;;;;;;1.20;99.90;;;;;;4980177;28;20017;-83
2022/01/23 05:07:11;;;;;;;;;;;1.00;99.90;;;;;;4997013;28;19918;-86
2022/01/23 05:09:34;;;;;;;;;;;1.00;99.90;;;;;;4999186;28;19922;-87
2022/01/23 05:12:04;;;;;;;;;;;1.10;99.90;;;;;;4980972;28;20476;-83
2022/01/23 05:14:34;;;;;;;;;;;1.10;99.90;;;;;;4982323;28;20385;-86
2022/01/23 05:17:00;;;;;;;;;;;1.00;99.90;;;;;;4979760;28;19926;-86
2022/01/23 05:19:26;;;;;;;;;;;1.00;99.90;;;;;;4986464;28;20333;-86
2022/01/23 05:24:23;;;;;;;;;;;0.80;99.90;;;;;;5000153;28;19932;-84
2022/01/23 05:26:49;;;;;;;;;;;0.90;99.90;;;;;;4979242;28;19946;-83
2022/01/23 05:29:14;;;;;;;;;;;0.80;99.90;;;;;;4997660;28;20284;-84
2022/01/23 05:31:40;;;;;;;;;;;0.80;99.90;;;;;;4998284;28;19921;-85
2022/01/23 05:34:06;;;;;;;;;;;0.80;99.90;;;;;;5000562;28;19921;-85
2022/01/23 05:36:31;;;;;;;;;;;0.80;99.90;;;;;;4998034;28;20320;-86
2022/01/23 05:38:57;;;;;;;;;;;0.90;99.90;;;;;;4979863;28;20005;-85
2022/01/23 05:41:22;;;;;;;;;;;0.90;99.90;;;;;;4990616;28;19957;-86
2022/01/23 05:43:48;;;;;;;;;;;1.00;99.90;;;;;;4983379;28;20274;-84
2022/01/23 05:46:15;;;;;;;;;;;1.20;99.90;;;;;;4996723;28;20407;-85
2022/01/23 05:48:41;;;;;;;;;;;1.30;99.90;;;;;;4977518;28;19992;-88
2022/01/23 05:51:11;;;;;;;;;;;1.20;99.90;;;;;;4993460;28;20377;-84
2022/01/23 05:53:40;;;;;;;;;;;1.10;99.90;;;;;;4996116;28;19953;-87
2022/01/23 05:56:05;;;;;;;;;;;1.10;99.90;;;;;;4998348;28;19918;-86
2022/01/23 05:58:31;;;;;;;;;;;1.10;99.90;;;;;;4980831;28;19934;-85
2022/01/23 06:00:57;;;;;;;;;;;1.10;99.90;;;;;;4992437;28;20275;-85
2022/01/23 06:03:22;;;;;;;;;;;1.10;99.90;;;;;;4984281;28;19922;-85
2022/01/23 06:05:48;;;;;;;;;;;0.90;99.90;;;;;;5002357;28;20414;-82
2022/01/23 06:08:13;;;;;;;;;;;0.80;99.90;;;;;;5001162;28;19917;-84
2022/01/23 06:10:56;;;;;;;;;;;0.70;99.90;;;;;;4983294;28;19925;-87
2022/01/23 06:13:26;;;;;;;;;;;0.70;99.90;;;;;;5008869;28;20214;-88
2022/01/23 06:15:52;;;;;;;;;;;0.60;99.90;;;;;;4975242;28;19918;-87
2022/01/23 06:18:18;;;;;;;;;;;0.60;99.90;;;;;;4981861;28;19914;-89
2022/01/23 06:20:43;;;;;;;;;;;0.70;99.90;;;;;;4988910;28;19971;-88
2022/01/23 06:23:09;;;;;;;;;;;0.70;99.90;;;;;;5005004;28;19914;-88
2022/01/23 06:25:37;;;;;;;;;;;0.70;99.90;;;;;;5008364;28;20047;-88
2022/01/23 06:28:06;;;;;;;;;;;1.00;99.90;;;;;;4985930;28;19914;-87
2022/01/23 06:30:32;;;;;;;;;;;0.90;99.90;;;;;;4986454;28;19929;-87
2022/01/23 06:32:58;;;;;;;;;;;0.70;99.90;;;;;;4996327;28;19914;-87
2022/01/23 06:35:23;;;;;;;;;;;0.70;99.90;;;;;;4998981;28;19929;-86
2022/01/23 06:37:49;;;;;;;;;;;0.60;99.90;;;;;;4995817;28;19932;-87
2022/01/23 06:40:15;;;;;;;;;;;0.70;99.90;;;;;;4993706;28;19918;-85
2022/01/23 06:42:40;;;;;;;;;;;0.70;99.90;;;;;;4983876;28;20201;-84
2022/01/23 06:45:06;;;;;;;;;;;0.80;99.90;;;;;;4998432;28;20514;-83
2022/01/23 06:47:31;;;;;;;;;;;0.80;99.90;;;;;;5001537;28;20016;-83
2022/01/23 06:49:57;;;;;;;;;;;0.80;99.90;;;;;;5000979;28;20011;-85
2022/01/23 06:52:23;;;;;;;;;;;0.60;99.90;;;;;;4984052;28;19941;-84
2022/01/23 06:54:49;;;;;;;;;;;0.70;99.90;;;;;;4999941;28;20038;-83
2022/01/23 06:57:15;;;;;;;;;;;0.70;99.90;;;;;;5003376;28;20008;-84
2022/01/23 06:59:40;;;;;;;;;;;0.70;99.90;;;;;;4986615;28;19913;-84
2022/01/23 07:02:06;;;;;;;;;;;0.80;99.90;;;;;;4981040;28;19937;-83
2022/01/23 07:04:31;;;;;;;;;;;0.90;99.90;;;;;;5001036;28;19922;-86
2022/01/23 07:06:57;;;;;;;;;;;1.00;99.90;;;;;;4998460;28;19926;-85
2022/01/23 07:09:22;;;;;;;;;;;1.00;99.90;;;;;;5004285;28;19953;-84
2022/01/23 07:11:48;;;;;;;;;;;1.10;99.90;;;;;;4996254;28;20290;-84
2022/01/23 07:14:14;;;;;;;;;;;1.10;99.90;;;;;;4985253;28;19926;-84
2022/01/23 07:16:39;;;;;;;;;;;1.10;99.90;;;;;;5002323;28;19918;-85
2022/01/23 07:19:05;;;;;;;;;;;0.90;99.90;;;;;;5002717;28;20407;-84
2022/01/23 07:21:31;;;;;;;;;;;0.80;99.90;;;;;;4982812;28;19926;-84
2022/01/23 07:23:56;;;;;;;;;;;0.80;99.90;;;;;;4999738;28;19914;-85
2022/01/23 07:26:23;;;;;;;;;;;0.90;99.90;;;;;;4984077;28;20345;-86
2022/01/23 07:28:51;;;;;;;;;;;1.00;99.90;;;;;;4997846;28;19973;-84
2022/01/23 07:31:42;;;;;;;;;;;1.00;99.90;;;;;;4982450;28;19925;-87
2022/01/23 07:34:03;;;;;;;;;;;1.20;99.90;;;;;;4999211;28;20368;-87
2022/01/23 07:36:29;;;;;;;;;;;1.10;99.90;;;;;;4983300;28;19918;-83
2022/01/23 07:38:54;;;;;;;;;;;1.00;99.90;;;;;;5000052;28;20387;-84
2022/01/23 07:41:20;;;;;;;;;;;1.00;99.90;;;;;;4996116;28;20389;-85
2022/01/23 07:43:46;;;;;;;;;;;1.10;99.90;;;;;;4999054;28;20075;-84
2022/01/23 07:46:11;;;;;;;;;;;1.20;99.90;;;;;;5002231;28;19941;-87
2022/01/23 07:48:37;;;;;;;;;;;1.30;99.90;;;;;;4999896;28;20234;-88
2022/01/23 07:51:02;;;;;;;;;;;1.40;99.90;;;;;;5001156;28;19929;-85
2022/01/23 07:53:28;;;;;;;;;;;1.30;99.90;;;;;;4987194;28;20060;-84
2022/01/23 07:55:53;;;;;;;;;;;1.40;99.90;;;;;;4982254;28;20297;-85
2022/01/23 07:58:19;;;;;;;;;;;1.50;99.90;;;;;;4984036;28;20381;-87
2022/01/23 08:00:47;;;;;;;;;;;1.40;99.90;;;;;;4981564;28;19925;-84
2022/01/23 08:03:13;;;;;;;;;;;1.40;99.90;;;;;;4984296;28;20352;-86
2022/01/23 08:05:38;;;;;;;;;;;1.50;99.90;;;;;;4984726;28;19918;-84
2022/01/23 08:08:04;;;;;;;;;;;1.60;99.90;;;;;;5001372;28;20394;-84
2022/01/23 08:10:30;;;;;;;;;;;1.90;99.90;;;;;;4983844;28;20329;-86
2022/01/23 08:12:55;;;;;;;;;;;2.00;99.90;;;;;;5001114;28;19936;-84
2022/01/23 08:15:21;;;;;;;;;;;2.00;99.90;;;;;;4997307;28;19976;-83
2022/01/23 08:17:46;;;;;;;;;;;2.00;99.90;;;;;;4997280;28;19924;-83
2022/01/23 08:20:12;;;;;;;;;;;2.00;99.90;;;;;;4961036;28;19918;-84
2022/01/23 08:22:37;;;;;;;;;;;1.90;99.90;;;;;;4983772;28;19921;-85
2022/01/23 08:25:03;;;;;;;;;;;1.90;99.90;;;;;;4983598;28;20282;-85
2022/01/23 08:27:29;;;;;;;;;;;1.70;99.90;;;;;;5001364;28;20033;-84
2022/01/23 08:29:55;;;;;;;;;;;1.90;99.90;;;;;;4997669;28;19918;-84
2022/01/23 08:32:21;;;;;;;;;;;1.90;99.90;;;;;;5001780;28;19922;-84
2022/01/23 08:34:47;;;;;;;;;;;2.00;99.90;;;;;;5002357;28;19917;-87
2022/01/23 08:37:13;;;;;;;;;;;2.20;99.90;;;;;;5001096;28;19918;-84
2022/01/23 08:39:39;;;;;;;;;;;2.40;99.90;;;;;;4981234;28;19953;-86
2022/01/23 08:42:15;;;;;;;;;;;2.50;99.90;;;;;;4998906;28;19932;-84
2022/01/23 08:44:41;;;;;;;;;;;2.30;99.90;;;;;;4984175;28;19918;-86
2022/01/23 08:47:07;;;;;;;;;;;2.20;99.90;;;;;;4979945;28;20439;-84
2022/01/23 08:49:34;;;;;;;;;;;2.30;99.90;;;;;;5000231;28;19914;-83
2022/01/23 08:51:59;;;;;;;;;;;2.40;99.90;;;;;;4999281;28;19918;-85
2022/01/23 08:54:26;;;;;;;;;;;2.60;99.90;;;;;;4997826;28;20015;-85
2022/01/23 08:56:52;;;;;;;;;;;2.60;99.90;;;;;;4983742;28;19929;-84
2022/01/23 08:59:17;;;;;;;;;;;2.50;99.90;;;;;;4979582;28;19922;-84
2022/01/23 09:01:43;;;;;;;;;;;2.70;99.90;;;;;;4996983;28;20379;-83
2022/01/23 09:04:10;;;;;;;;;;;2.70;99.90;;;;;;4972734;28;19922;-82
2022/01/23 09:06:36;;;;;;;;;;;2.50;99.90;;;;;;4967752;28;19954;-83
2022/01/23 09:09:04;;;;;;;;;;;2.40;99.90;;;;;;4969998;28;19918;-84
2022/01/23 09:16:31;;;;;;;;;;;2.50;99.90;;;;;;4956368;28;19925;-83
2022/01/23 09:18:56;;;;;;;;;;;2.60;99.90;;;;;;4959193;28;19926;-83
2022/01/23 09:21:22;;;;;;;;;;;2.80;99.90;;;;;;4943936;28;19926;-84
2022/01/23 09:23:47;;;;;;;;;;;2.80;99.90;;;;;;4958823;28;19918;-84
2022/01/23 09:26:16;;;;;;;;;;;3.00;99.90;;;;;;4945078;28;20438;-86
2022/01/23 09:28:44;;;;;;;;;;;3.30;99.90;;;;;;4978525;28;20389;-84
2022/01/23 09:31:12;;;;;;;;;;;3.00;99.90;;;;;;4963584;28;19922;-84
2022/01/23 09:33:37;;;;;;;;;;;3.10;99.90;;;;;;4966684;28;19929;-83
2022/01/23 09:36:05;;;;;;;;;;;3.10;99.90;;;;;;4966631;28;21351;-84
2022/01/23 09:38:30;;;;;;;;;;;3.10;99.90;;;;;;4965715;28;19969;-84
2022/01/23 09:40:57;;;;;;;;;;;3.20;99.90;;;;;;4963023;28;19973;-84
2022/01/23 09:43:23;;;;;;;;;;;3.00;99.90;;;;;;4966149;28;20394;-84
2022/01/23 09:45:50;;;;;;;;;;;3.00;99.90;;;;;;4968695;28;20456;-84
2022/01/23 09:48:16;;;;;;;;;;;3.10;99.90;;;;;;4968878;28;19925;-83
2022/01/23 09:50:43;;;;;;;;;;;3.30;99.90;;;;;;4960990;28;19914;-84
2022/01/23 09:53:08;;;;;;;;;;;3.20;99.90;;;;;;4947099;28;19923;-85
2022/01/23 09:55:35;;;;;;;;;;;3.40;99.90;;;;;;4966036;28;20527;-86
2022/01/23 09:58:00;;;;;;;;;;;3.60;99.90;;;;;;4966741;28;19914;-84
2022/01/23 10:00:27;;;;;;;;;;;3.70;99.90;;;;;;4970739;28;19961;-84
2022/01/23 10:02:53;;;;;;;;;;;4.00;99.90;;;;;;4949043;28;19926;-84
2022/01/23 10:05:19;;;;;;;;;;;3.90;99.90;;;;;;4980224;28;20339;-85
2022/01/23 10:07:45;;;;;;;;;;;3.80;99.90;;;;;;4969055;28;19918;-84
2022/01/23 10:10:16;;;;;;;;;;;4.00;99.90;;;;;;4968214;28;20350;-84
2022/01/23 10:12:42;;;;;;;;;;;4.40;99.90;;;;;;4951516;28;19981;-84
2022/01/23 10:15:09;;;;;;;;;;;4.50;99.90;;;;;;4965926;28;19988;-85
2022/01/23 10:17:35;;;;;;;;;;;4.30;99.90;;;;;;4960894;28;19938;-83
2022/01/23 10:20:00;;;;;;;;;;;4.60;99.90;;;;;;4969426;28;20404;-82
2022/01/23 10:22:26;;;;;;;;;;;4.60;99.90;;;;;;4963628;28;19919;-84
2022/01/23 10:24:52;;;;;;;;;;;4.50;99.90;;;;;;4982527;28;19918;-84
2022/01/23 10:27:17;;;;;;;;;;;4.50;99.90;;;;;;4986449;28;19958;-84
2022/01/23 10:29:46;;;;;;;;;;;4.30;99.90;;;;;;4950636;28;19945;-82
2022/01/23 10:32:24;;;;;;;;;;;4.20;99.90;;;;;;4970944;28;19922;-85
2022/01/23 10:34:49;;;;;;;;;;;4.30;99.90;;;;;;4962923;28;20018;-83
2022/01/23 10:37:24;;;;;;;;;;;4.60;99.90;;;;;;4963575;28;20028;-83
2022/01/23 10:39:50;;;;;;;;;;;5.00;99.90;;;;;;4946727;28;19918;-83
2022/01/23 10:48:12;;;;;;;;;;;4.60;99.90;;;;;;4962123;28;20302;-84
2022/01/23 10:50:36;;;;;;;;;;;4.60;99.90;;;;;;4961528;28;20473;-82
2022/01/23 10:53:02;;;;;;;;;;;4.40;99.90;;;;;;4961951;28;19929;-84
2022/01/23 10:55:32;;;;;;;;;;;4.70;99.90;;;;;;4957418;28;19918;-83
2022/01/23 10:58:01;;;;;;;;;;;5.00;99.90;;;;;;4962163;28;20029;-83
2022/01/23 11:00:27;;;;;;;;;;;5.00;99.90;;;;;;4958305;28;19919;-82
2022/01/23 11:02:53;;;;;;;;;;;5.20;99.90;;;;;;4960203;28;19914;-82
2022/01/23 11:05:19;;;;;;;;;;;5.10;99.90;;;;;;4960031;28;19930;-85
2022/01/23 11:07:48;;;;;;;;;;;5.10;99.90;;;;;;4964692;28;19977;-84
2022/01/23 11:10:14;;;;;;;;;;;4.80;99.90;;;;;;4963098;28;19922;-85
2022/01/23 11:18:08;;;;;;;;;;;4.50;99.90;;;;;;4953806;28;20374;-83
2022/01/23 11:20:37;;;;;;;;;;;4.90;99.90;;;;;;4956528;28;19943;-83
2022/01/23 11:23:30;;;;;;;;;;;5.00;99.90;;;;;;4965274;28;19928;-83
2022/01/23 11:25:56;;;;;;;;;;;5.00;99.90;;;;;;4958886;28;20017;-83
2022/01/23 11:28:54;;;;;;;;;;;5.00;99.90;;;;;;4962785;28;20385;-84
2022/01/23 11:31:22;;;;;;;;;;;4.80;99.90;;;;;;4937341;28;19919;-84
2022/01/23 11:33:49;;;;;;;;;;;4.50;99.90;;;;;;4962613;28;19925;-84
2022/01/23 11:36:17;;;;;;;;;;;4.70;99.90;;;;;;4971765;28;20275;-83
2022/01/23 11:38:45;;;;;;;;;;;5.10;99.90;;;;;;4961524;28;19945;-82
2022/01/23 11:54:48;;;;;;;;;;;4.70;99.90;;;;;;4962986;28;19992;-82
2022/01/23 11:57:32;;;;;;;;;;;4.70;99.90;;;;;;4975874;28;20441;-83
2022/01/23 11:59:59;;;;;;;;;;;4.80;99.90;;;;;;4957219;28;19925;-83
2022/01/23 12:02:37;;;;;;;;;;;4.70;99.90;;;;;;4962296;28;19933;-84
2022/01/23 12:05:16;;;;;;;;;;;5.00;99.90;;;;;;4991952;28;20020;-82
2022/01/23 12:07:43;;;;;;;;;;;4.80;99.90;;;;;;4983652;28;19917;-82
2022/01/23 12:10:13;;;;;;;;;;;4.60;99.90;;;;;;4981505;28;20205;-83
2022/01/23 12:12:42;;;;;;;;;;;4.40;99.90;;;;;;4999924;28;20400;-82
2022/01/23 12:18:18;;;;;;;;;;;4.30;99.90;;;;;;5002489;28;20041;-82
2022/01/23 12:20:44;;;;;;;;;;;4.40;99.90;;;;;;5001318;28;20393;-83
2022/01/23 12:23:10;;;;;;;;;;;4.50;99.90;;;;;;4980826;28;19988;-83
2022/01/23 12:25:40;;;;;;;;;;;4.50;99.90;;;;;;4980940;28;20304;-83
2022/01/23 12:28:09;;;;;;;;;;;4.60;98.10;;;;;;4982650;28;19921;-83
2022/01/23 12:30:34;;;;;;;;;;;4.60;98.70;;;;;;4998072;28;19922;-82
2022/01/23 12:33:19;;;;;;;;;;;4.60;97.80;;;;;;5000893;28;19922;-82
2022/01/23 12:35:47;;;;;;;;;;;4.30;94.80;;;;;;4980898;28;19976;-83
2022/01/23 12:38:13;;;;;;;;;;;4.10;95.60;;;;;;5000083;28;19921;-83
2022/01/23 12:40:45;;;;;;;;;;;4.10;95.90;;;;;;4997168;28;19984;-83
2022/01/23 12:43:21;;;;;;;;;;;4.20;97.20;;;;;;4983217;28;19925;-81
2022/01/23 12:46:05;;;;;;;;;;;4.20;95.80;;;;;;4996803;28;19921;-83
2022/01/23 12:48:33;;;;;;;;;;;4.20;97.20;;;;;;4981912;28;19921;-84
2022/01/23 12:51:01;;;;;;;;;;;4.40;96.50;;;;;;5000247;28;20048;-84
2022/01/23 12:53:47;;;;;;;;;;;4.30;96.10;;;;;;4998045;28;19965;-83
2022/01/23 12:56:14;;;;;;;;;;;4.40;95.90;;;;;;4992428;28;20008;-82
2022/01/23 12:58:41;;;;;;;;;;;4.50;95.50;;;;;;5000716;28;19936;-82
2022/01/23 13:01:21;;;;;;;;;;;4.30;94.30;;;;;;4999767;28;20201;-82
2022/01/23 13:04:08;;;;;;;;;;;3.90;93.10;;;;;;4992292;28;19934;-83
2022/01/23 13:06:42;;;;;;;;;;;3.80;94.60;;;;;;4998079;28;19914;-83
2022/01/23 13:09:20;;;;;;;;;;;3.90;94.10;;;;;;4981424;28;19913;-84
2022/01/23 13:11:55;;;;;;;;;;;3.90;93.70;;;;;;4997216;28;19949;-83
2022/01/23 13:14:27;;;;;;;;;;;4.00;92.80;;;;;;4976820;28;20357;-83
2022/01/23 13:17:24;;;;;;;;;;;4.10;92.10;;;;;;4996556;28;19925;-83
2022/01/23 13:30:31;;;;;;;;;;;3.90;93.20;;;;;;4996833;28;19988;-82
2022/01/23 13:33:04;;;;;;;;;;;4.00;93.00;;;;;;4999841;28;19917;-85
2022/01/23 13:35:36;;;;;;;;;;;3.90;93.30;;;;;;4997428;28;19946;-84
2022/01/23 13:38:08;;;;;;;;;;;3.90;93.00;;;;;;5000441;28;20008;-84
2022/01/23 13:40:39;;;;;;;;;;;3.90;93.30;;;;;;4996792;28;19926;-84
2022/01/23 14:04:34;;;;;;;;;;;3.90;93.60;;;;;;4998108;28;20376;-83
2022/01/23 14:06:59;;;;;;;;;;;3.60;93.00;;;;;;4983682;28;19980;-84
2022/01/23 14:09:26;;;;;;;;;;;3.40;93.70;;;;;;5002401;28;20403;-84
2022/01/23 14:11:52;;;;;;;;;;;3.40;95.60;;;;;;4991077;28;19922;-80
2022/01/23 14:14:22;;;;;;;;;;;3.70;94.00;;;;;;4993194;28;19917;-74
2022/01/23 14:16:49;;;;;;;;;;;3.70;93.80;;;;;;4995088;28;19921;-77
2022/01/23 14:19:22;;;;;;;;;;;3.80;93.40;;;;;;4972217;28;19932;-77
2022/01/23 14:21:49;;;;;;;;;;;3.80;92.30;;;;;;4996162;28;19925;-83
2022/01/23 14:24:29;;;;;;;;;;;3.60;92.50;;;;;;5002846;28;19922;-85
2022/01/23 14:27:21;;;;;;;;;;;3.50;93.00;;;;;;4991276;28;19926;-84
2022/01/23 14:29:47;;;;;;;;;;;3.40;93.00;;;;;;4980107;28;19921;-82
2022/01/23 14:32:20;;;;;;;;;;;3.50;94.00;;;;;;4998684;28;20618;-86
2022/01/23 14:34:46;;;;;;;;;;;3.60;94.30;;;;;;4984753;28;19933;-83
2022/01/23 14:37:11;;;;;;;;;;;3.70;93.80;;;;;;4981755;28;20336;-83
2022/01/23 14:39:37;;;;;;;;;;;3.70;93.30;;;;;;5001433;28;19976;-85
2022/01/23 14:42:13;;;;;;;;;;;3.80;93.20;;;;;;5005635;28;19932;-82
2022/01/23 14:44:39;;;;;;;;;;;3.70;93.30;;;;;;4993960;28;19922;-83
2022/01/23 14:47:05;;;;;;;;;;;3.60;91.90;;;;;;5008689;28;19933;-82
2022/01/23 14:49:32;;;;;;;;;;;3.40;92.10;;;;;;5001212;28;19922;-83
2022/01/23 14:51:58;;;;;;;;;;;3.30;92.60;;;;;;4976403;28;19949;-84
2022/01/23 14:54:24;;;;;;;;;;;3.10;92.50;;;;;;4997382;28;19920;-79
2022/01/23 14:56:51;;;;;;;;;;;3.10;94.30;;;;;;4999113;28;19922;-82
2022/01/23 14:59:17;;;;;;;;;;;3.10;93.20;;;;;;4982857;28;19917;-81
2022/01/23 15:01:44;;;;;;;;;;;3.20;94.30;;;;;;4998936;28;19922;-84
2022/01/23 15:04:10;;;;;;;;;;;3.40;94.20;;;;;;4993508;28;19930;-82
2022/01/23 15:06:36;;;;;;;;;;;3.20;94.40;;;;;;4998832;28;19967;-82
2022/01/23 15:09:03;;;;;;;;;;;3.10;93.80;;;;;;4995930;28;19918;-83
2022/01/23 15:11:29;;;;;;;;;;;3.00;94.20;;;;;;4984156;28;19921;-83
2022/01/23 15:13:54;;;;;;;;;;;2.90;93.60;;;;;;4981357;28;20586;-85
2022/01/23 15:16:20;;;;;;;;;;;2.80;94.00;;;;;;4995751;28;19925;-83
2022/01/23 15:18:46;;;;;;;;;;;2.90;95.10;;;;;;4980866;28;19995;-85
2022/01/23 15:21:12;;;;;;;;;;;2.90;95.90;;;;;;4989674;28;19922;-87
2022/01/23 15:23:38;;;;;;;;;;;3.00;95.10;;;;;;5002777;28;19924;-88
2022/01/23 15:26:04;;;;;;;;;;;3.00;94.60;;;;;;4993326;28;20482;-86
2022/01/23 15:28:29;;;;;;;;;;;3.00;95.10;;;;;;4996459;28;19925;-87
2022/01/23 15:30:55;;;;;;;;;;;3.00;94.70;;;;;;5001668;28;19922;-87
2022/01/23 15:33:21;;;;;;;;;;;3.00;94.50;;;;;;4987290;28;19929;-89
2022/01/23 15:35:47;;;;;;;;;;;2.90;95.40;;;;;;4979105;28;20399;-89
2022/01/23 15:38:14;;;;;;;;;;;2.90;94.60;;;;;;4964701;28;19953;-88
2022/01/23 15:40:40;;;;;;;;;;;2.60;95.60;;;;;;4979093;28;19984;-88
2022/01/23 15:43:06;;;;;;;;;;;2.60;95.90;;;;;;4990623;28;20785;-88
2022/01/23 15:45:31;;;;;;;;;;;2.70;95.80;;;;;;4983664;28;20381;-86
2022/01/23 15:47:57;;;;;;;;;;;2.70;97.60;;;;;;4980929;28;19934;-87
2022/01/23 15:50:23;;;;;;;;;;;2.80;96.80;;;;;;4973028;28;19921;-88
2022/01/23 15:52:50;;;;;;;;;;;2.80;96.40;;;;;;5000806;28;19913;-85
2022/01/23 15:55:16;;;;;;;;;;;2.80;97.00;;;;;;4997500;28;20020;-88
2022/01/23 15:57:43;;;;;;;;;;;2.70;97.40;;;;;;4993097;28;19914;-85
2022/01/23 16:00:10;;;;;;;;;;;2.60;96.80;;;;;;4974424;28;19921;-86
2022/01/23 16:02:36;;;;;;;;;;;2.50;97.70;;;;;;4998516;28;20445;-86
2022/01/23 16:05:03;;;;;;;;;;;2.60;97.70;;;;;;4997484;28;19965;-84
2022/01/23 16:07:28;;;;;;;;;;;2.60;98.20;;;;;;4990138;28;19925;-85
2022/01/23 16:09:54;;;;;;;;;;;2.60;98.00;;;;;;4998751;28;19938;-85
2022/01/23 16:12:19;;;;;;;;;;;2.70;98.50;;;;;;4993584;28;19918;-83
2022/01/23 16:14:45;;;;;;;;;;;2.60;97.80;;;;;;4990271;28;19921;-86
2022/01/23 16:17:11;;;;;;;;;;;2.70;98.80;;;;;;4998588;28;20441;-85
2022/01/23 16:19:36;;;;;;;;;;;2.50;97.60;;;;;;4999834;28;19945;-88
2022/01/23 16:22:03;;;;;;;;;;;2.30;98.80;;;;;;4997493;28;20589;-85
2022/01/23 16:24:28;;;;;;;;;;;2.30;97.80;;;;;;4989179;28;19917;-86
2022/01/23 16:26:55;;;;;;;;;;;2.40;98.70;;;;;;4991376;28;19913;-85
2022/01/23 16:29:21;;;;;;;;;;;2.50;98.90;;;;;;4989315;28;20739;-88
2022/01/23 16:31:48;;;;;;;;;;;2.50;98.70;;;;;;4976342;28;20016;-87
2022/01/23 16:34:13;;;;;;;;;;;2.50;99.60;;;;;;4991400;28;20405;-85
2022/01/23 16:36:39;;;;;;;;;;;2.50;98.60;;;;;;4976652;28;19960;-85
2022/01/23 16:39:05;;;;;;;;;;;2.50;99.20;;;;;;4999090;28;19984;-86
2022/01/23 16:41:31;;;;;;;;;;;2.30;98.40;;;;;;4996010;28;19925;-86
2022/01/23 16:43:57;;;;;;;;;;;2.30;98.50;;;;;;4986331;28;19921;-86
2022/01/23 16:46:22;;;;;;;;;;;2.20;98.90;;;;;;4980323;28;19913;-85
2022/01/23 16:48:49;;;;;;;;;;;2.10;98.90;;;;;;4999483;28;19935;-86
2022/01/23 16:51:15;;;;;;;;;;;2.10;98.30;;;;;;4999325;28;19922;-86
2022/01/23 16:53:40;;;;;;;;;;;2.20;99.80;;;;;;4989114;28;19921;-89
2022/01/23 16:56:06;;;;;;;;;;;2.20;98.80;;;;;;4982995;28;19945;-89
2022/01/23 16:58:32;;;;;;;;;;;2.30;98.80;;;;;;4984484;28;20436;-88
2022/01/23 17:00:58;;;;;;;;;;;2.10;98.70;;;;;;4982344;28;19938;-88
2022/01/23 17:03:24;;;;;;;;;;;1.90;98.60;;;;;;4983995;28;19921;-88
2022/01/23 17:05:50;;;;;;;;;;;1.70;99.80;;;;;;4987788;28;19922;-89
2022/01/23 17:08:17;;;;;;;;;;;1.50;99.90;;;;;;4984197;28;19928;-87
2022/01/23 17:10:43;;;;;;;;;;;1.40;99.90;;;;;;4989375;28;19917;-88
2022/01/23 17:13:09;;;;;;;;;;;1.30;99.90;;;;;;5008051;28;19917;-88
2022/01/23 17:15:35;;;;;;;;;;;1.10;99.90;;;;;;5007297;28;19969;-89
2022/01/23 17:18:01;;;;;;;;;;;1.00;99.90;;;;;;4988108;28;19913;-88
2022/01/23 17:20:27;;;;;;;;;;;1.00;99.90;;;;;;4987020;28;20012;-88
2022/01/23 17:22:52;;;;;;;;;;;0.80;99.90;;;;;;5006198;28;20356;-88
2022/01/23 17:25:18;;;;;;;;;;;0.70;99.90;;;;;;4993730;28;19949;-87
2022/01/23 17:27:48;;;;;;;;;;;0.50;99.90;;;;;;4982336;28;19918;-86
2022/01/23 17:30:14;;;;;;;;;;;0.40;99.90;;;;;;4995550;28;20011;-88
2022/01/23 17:32:40;;;;;;;;;;;0.30;99.90;;;;;;4980141;28;19952;-88
2022/01/23 17:35:06;;;;;;;;;;;0.20;99.90;;;;;;4995175;28;20381;-86
2022/01/23 17:37:32;;;;;;;;;;;0.10;99.90;;;;;;5001307;28;19984;-84
2022/01/23 17:39:57;;;;;;;;;;;0.10;99.90;;;;;;4996451;28;20378;-85
2022/01/23 17:42:23;;;;;;;;;;;0.00;99.90;;;;;;4985664;28;19918;-84
2022/01/23 17:44:51;;;;;;;;;;;-0.10;99.90;;;;;;4997691;28;19913;-85
2022/01/23 17:47:23;;;;;;;;;;;-0.20;99.90;;;;;;4992130;28;19921;-88
2022/01/23 17:49:57;;;;;;;;;;;-0.20;99.90;;;;;;4998857;28;20016;-82
2022/01/23 17:52:23;;;;;;;;;;;-0.20;99.90;;;;;;4999048;28;19952;-85
2022/01/23 17:54:49;;;;;;;;;;;-0.20;99.90;;;;;;4986817;28;20056;-86
2022/01/23 17:57:17;;;;;;;;;;;-0.30;99.90;;;;;;4989093;28;19918;-86
2022/01/23 17:59:43;;;;;;;;;;;-0.30;99.90;;;;;;5001118;28;19991;-84
2022/01/23 18:02:10;;;;;;;;;;;-0.50;99.90;;;;;;5003757;28;19925;-84
2022/01/23 18:04:35;;;;;;;;;;;-0.50;99.90;;;;;;5004126;28;19961;-85
2022/01/23 18:07:07;;;;;;;;;;;-0.50;99.90;;;;;;4999446;28;19939;-85